createdAt,value
2023-01-27T16:41:38.804Z,4.60
2023-01-27T16:44:18.135Z,4.70
2023-01-27T16:46:50.607Z,4.70
2023-01-27T16:49:23.885Z,4.80
2023-01-27T16:51:56.911Z,4.80
2023-01-27T16:54:30.724Z,5.20
2023-01-27T16:57:05.146Z,4.80
2023-01-27T16:59:36.955Z,4.80
2023-01-27T17:02:14.861Z,4.90
2023-01-27T17:04:51.832Z,4.70
2023-01-27T17:07:20.550Z,4.70
2023-01-27T17:09:53.624Z,4.70
2023-01-27T17:12:32.161Z,4.80
2023-01-27T17:15:02.656Z,4.70
2023-01-27T17:17:36.190Z,4.70
2023-01-27T17:20:08.257Z,4.80
2023-01-27T17:22:45.362Z,4.80
2023-01-27T17:25:19.554Z,4.70
2023-01-27T17:27:51.896Z,4.80
2023-01-27T17:30:24.132Z,4.70
2023-01-27T17:32:56.576Z,4.70
2023-01-27T17:35:30.735Z,4.60
2023-01-27T17:38:12.493Z,4.60
2023-01-27T17:40:46.463Z,4.70
2023-01-27T17:43:31.214Z,4.70
2023-01-27T17:46:17.501Z,4.70
2023-01-27T17:48:52.555Z,4.70
2023-01-27T17:51:25.574Z,4.70
2023-01-27T17:53:56.825Z,4.70
2023-01-27T17:56:30.032Z,4.80
2023-01-27T17:59:07.664Z,4.80
2023-01-27T18:01:36.657Z,4.50
2023-01-27T18:04:07.436Z,4.70
2023-01-27T18:06:35.993Z,4.60
2023-01-27T18:09:17.496Z,4.80
2023-01-27T18:11:54.483Z,4.80
2023-01-27T18:14:24.488Z,4.80
2023-01-27T18:17:00.502Z,4.90
2023-01-27T18:19:29.008Z,4.80
2023-01-27T18:22:11.675Z,4.90
2023-01-27T18:24:50.096Z,4.90
2023-01-27T18:27:28.741Z,4.80
2023-01-27T18:30:03.445Z,4.90
2023-01-27T18:32:40.291Z,4.80
2023-01-27T18:35:27.001Z,5.00
2023-01-27T18:37:58.402Z,5.00
2023-01-27T18:40:29.934Z,4.80
2023-01-27T18:42:58.986Z,5.10
2023-01-27T18:45:29.371Z,4.80
2023-01-27T18:47:59.555Z,4.70
2023-01-27T18:50:29.091Z,4.90
2023-01-27T18:52:57.658Z,4.60
2023-01-27T18:55:30.312Z,4.60
2023-01-27T18:58:00.262Z,4.60
2023-01-27T19:00:41.420Z,4.50
2023-01-27T19:03:17.898Z,4.50
2023-01-27T19:05:46.916Z,4.60
2023-01-27T19:08:18.472Z,4.60
2023-01-27T19:10:49.433Z,4.60
2023-01-27T19:13:18.543Z,4.60
2023-01-27T19:15:51.277Z,4.70
2023-01-27T19:18:26.040Z,4.70
2023-01-27T19:20:54.851Z,4.70
2023-01-27T19:23:23.517Z,4.70
2023-01-27T19:25:54.549Z,4.70
2023-01-27T19:28:28.019Z,4.70
2023-01-27T19:30:59.035Z,4.60
2023-01-27T19:33:29.229Z,4.60
2023-01-27T19:36:00.662Z,4.60
2023-01-27T19:38:32.886Z,4.60
2023-01-27T19:41:02.309Z,4.50
2023-01-27T19:43:34.023Z,4.60
2023-01-27T19:46:04.281Z,4.70
2023-01-27T19:48:35.362Z,4.70
2023-01-27T19:51:03.918Z,4.70
2023-01-27T19:53:32.486Z,4.60
2023-01-27T19:56:13.924Z,4.60
2023-01-27T20:01:12.687Z,4.60
2023-01-27T20:03:41.126Z,4.60
2023-01-27T20:06:17.154Z,4.60
2023-01-27T20:08:46.391Z,4.70
2023-01-27T20:11:34.656Z,4.70
2023-01-27T20:14:04.018Z,4.60
2023-01-27T20:16:36.391Z,4.50
2023-01-27T20:19:05.169Z,4.50
2023-01-27T20:21:34.520Z,4.50
2023-01-27T20:24:03.281Z,4.50
2023-01-27T20:29:01.232Z,4.50
2023-01-27T20:34:00.303Z,4.40
2023-01-27T20:36:28.759Z,4.40
2023-01-27T20:38:57.026Z,4.50
2023-01-27T20:41:25.886Z,4.50
2023-01-27T20:43:59.817Z,4.60
2023-01-27T20:46:29.905Z,4.50
2023-01-27T20:49:05.162Z,4.50
2023-01-27T20:51:36.497Z,4.50
2023-01-27T20:54:05.886Z,4.50
2023-01-27T20:56:34.350Z,4.40
2023-01-27T20:59:02.889Z,4.40
2023-01-27T21:01:33.080Z,4.40
2023-01-27T21:04:02.816Z,4.40
2023-01-27T21:06:34.038Z,4.60
2023-01-27T21:09:07.006Z,4.60
2023-01-27T21:21:33.900Z,4.40
2023-01-27T21:24:02.573Z,4.50
2023-01-27T21:26:32.935Z,4.40
2023-01-27T21:29:01.792Z,4.50
2023-01-27T21:31:30.687Z,4.50
2023-01-27T21:34:01.669Z,4.60
2023-01-27T21:36:31.655Z,4.40
